Terminal Aerodrome Forecast
Issued by NWS

Home | Current Version | Previous Version | Text Only | Print | Product List | Glossary On
Versions: 1 2 3 4 5 6 7 8 9 10 11 12 13 14 15 16 17 18 19 20 21 22 23 24 25
000
FTUS44 KEWX 021734
TAFSSF
TAF
KSSF 021734Z 0218/0318 15012G22KT P6SM SCT035 BKN040
     FM030000 14010KT P6SM SCT035 BKN250
     FM030600 14008KT P6SM BKN015
     FM030800 14007KT P6SM OVC007
     FM031500 16010KT P6SM BKN015
     FM031700 16010G20KT P6SM SCT035=

USA.gov is the U.S. government's official web portal to all federal, state and local government web resources and services.